sensor_id;sensor_type;location;lat;lon;timestamp;pressure;altitude;pressure_sealevel;temperature;humidity
49611;BME280;35515;48.766;9.176;2023-02-15T00:01:16;99713.94;;;2.11;87.26
49611;BME280;35515;48.766;9.176;2023-02-15T00:03:43;99710.78;;;1.95;88.44
49611;BME280;35515;48.766;9.176;2023-02-15T00:06:11;99703.00;;;2.03;88.56
49611;BME280;35515;48.766;9.176;2023-02-15T00:08:37;99699.59;;;1.90;88.50
49611;BME280;35515;48.766;9.176;2023-02-15T00:11:04;99697.63;;;1.92;88.91
49611;BME280;35515;48.766;9.176;2023-02-15T00:13:31;99693.97;;;1.70;89.58
49611;BME280;35515;48.766;9.176;2023-02-15T00:16:00;99685.06;;;1.58;90.14
49611;BME280;35515;48.766;9.176;2023-02-15T00:18:26;99686.66;;;1.49;90.69
49611;BME280;35515;48.766;9.176;2023-02-15T00:20:52;99679.66;;;1.71;89.32
49611;BME280;35515;48.766;9.176;2023-02-15T00:23:20;99681.47;;;1.71;89.34
49611;BME280;35515;48.766;9.176;2023-02-15T00:25:46;99679.91;;;2.02;87.55
49611;BME280;35515;48.766;9.176;2023-02-15T00:28:13;99682.09;;;2.08;86.41
49611;BME280;35515;48.766;9.176;2023-02-15T00:30:39;99681.47;;;2.05;86.48
49611;BME280;35515;48.766;9.176;2023-02-15T00:33:06;99683.31;;;2.04;86.48
49611;BME280;35515;48.766;9.176;2023-02-15T00:35:32;99679.41;;;1.97;87.69
49611;BME280;35515;48.766;9.176;2023-02-15T00:37:58;99671.16;;;2.00;86.78
49611;BME280;35515;48.766;9.176;2023-02-15T00:40:26;99680.09;;;1.65;88.66
49611;BME280;35515;48.766;9.176;2023-02-15T00:42:52;99673.09;;;1.75;89.05
49611;BME280;35515;48.766;9.176;2023-02-15T00:45:19;99675.53;;;1.90;87.37
49611;BME280;35515;48.766;9.176;2023-02-15T00:47:46;99673.47;;;1.93;88.14
49611;BME280;35515;48.766;9.176;2023-02-15T00:50:12;99674.78;;;1.88;87.71
49611;BME280;35515;48.766;9.176;2023-02-15T00:52:39;99679.16;;;1.89;88.16
49611;BME280;35515;48.766;9.176;2023-02-15T00:55:05;99672.56;;;1.47;89.04
49611;BME280;35515;48.766;9.176;2023-02-15T00:57:33;99679.47;;;1.39;89.74
49611;BME280;35515;48.766;9.176;2023-02-15T01:00:00;99676.13;;;1.24;90.91
49611;BME280;35515;48.766;9.176;2023-02-15T01:02:26;99671.94;;;1.44;89.86
49611;BME280;35515;48.766;9.176;2023-02-15T01:04:53;99675.72;;;1.64;89.09
49611;BME280;35515;48.766;9.176;2023-02-15T01:07:19;99670.63;;;1.49;89.37
49611;BME280;35515;48.766;9.176;2023-02-15T01:09:45;99670.56;;;1.27;90.88
49611;BME280;35515;48.766;9.176;2023-02-15T01:12:12;99668.28;;;1.45;90.07
49611;BME280;35515;48.766;9.176;2023-02-15T01:14:40;99673.25;;;1.38;90.85
49611;BME280;35515;48.766;9.176;2023-02-15T01:17:06;99670.13;;;1.44;90.21
49611;BME280;35515;48.766;9.176;2023-02-15T01:19:32;99668.16;;;1.35;90.37
49611;BME280;35515;48.766;9.176;2023-02-15T01:21:59;99664.41;;;1.49;90.01
49611;BME280;35515;48.766;9.176;2023-02-15T01:24:25;99669.16;;;1.45;89.63
49611;BME280;35515;48.766;9.176;2023-02-15T01:26:51;99674.50;;;1.57;88.74
49611;BME280;35515;48.766;9.176;2023-02-15T01:29:18;99685.94;;;1.59;88.56
49611;BME280;35515;48.766;9.176;2023-02-15T01:31:46;99675.97;;;1.61;88.33
49611;BME280;35515;48.766;9.176;2023-02-15T01:34:12;99673.50;;;1.35;89.81
49611;BME280;35515;48.766;9.176;2023-02-15T01:36:38;99674.84;;;1.41;89.58
49611;BME280;35515;48.766;9.176;2023-02-15T01:39:05;99671.13;;;1.66;88.19
49611;BME280;35515;48.766;9.176;2023-02-15T01:41:32;99670.00;;;1.57;88.45
49611;BME280;35515;48.766;9.176;2023-02-15T01:44:00;99674.72;;;1.42;88.59
49611;BME280;35515;48.766;9.176;2023-02-15T01:46:27;99676.59;;;1.17;90.39
49611;BME280;35515;48.766;9.176;2023-02-15T01:49:00;99668.59;;;1.17;89.95
49611;BME280;35515;48.766;9.176;2023-02-15T01:51:28;99661.81;;;1.25;90.36
49611;BME280;35515;48.766;9.176;2023-02-15T01:53:57;99667.84;;;1.15;89.80
49611;BME280;35515;48.766;9.176;2023-02-15T01:56:26;99662.97;;;1.09;91.10
49611;BME280;35515;48.766;9.176;2023-02-15T01:58:54;99665.31;;;1.14;90.71
49611;BME280;35515;48.766;9.176;2023-02-15T02:01:22;99658.72;;;1.07;90.86
49611;BME280;35515;48.766;9.176;2023-02-15T02:03:53;99658.19;;;1.26;89.79
49611;BME280;35515;48.766;9.176;2023-02-15T02:06:23;99653.53;;;1.16;89.53
49611;BME280;35515;48.766;9.176;2023-02-15T02:08:50;99651.78;;;1.40;88.91
49611;BME280;35515;48.766;9.176;2023-02-15T02:11:17;99649.66;;;1.21;89.97
49611;BME280;35515;48.766;9.176;2023-02-15T02:13:44;99650.38;;;1.11;89.92
49611;BME280;35515;48.766;9.176;2023-02-15T02:16:11;99649.34;;;1.01;91.10
49611;BME280;35515;48.766;9.176;2023-02-15T02:18:41;99641.59;;;1.09;90.96
49611;BME280;35515;48.766;9.176;2023-02-15T02:21:32;99641.81;;;0.95;91.26
49611;BME280;35515;48.766;9.176;2023-02-15T02:24:13;99645.56;;;1.28;89.86
49611;BME280;35515;48.766;9.176;2023-02-15T02:26:57;99652.25;;;0.98;90.46
49611;BME280;35515;48.766;9.176;2023-02-15T02:32:28;99635.69;;;1.06;90.05
49611;BME280;35515;48.766;9.176;2023-02-15T02:34:59;99642.78;;;0.94;90.84
49611;BME280;35515;48.766;9.176;2023-02-15T02:37:28;99641.31;;;0.90;90.59
49611;BME280;35515;48.766;9.176;2023-02-15T02:39:59;99642.50;;;0.86;91.16
49611;BME280;35515;48.766;9.176;2023-02-15T02:42:31;99640.63;;;0.99;91.54
49611;BME280;35515;48.766;9.176;2023-02-15T02:45:02;99636.81;;;1.26;89.47
49611;BME280;35515;48.766;9.176;2023-02-15T02:47:30;99633.53;;;1.22;88.90
49611;BME280;35515;48.766;9.176;2023-02-15T02:50:01;99636.75;;;1.03;90.13
49611;BME280;35515;48.766;9.176;2023-02-15T02:52:35;99641.72;;;0.96;90.68
49611;BME280;35515;48.766;9.176;2023-02-15T02:55:02;99646.16;;;0.96;90.13
49611;BME280;35515;48.766;9.176;2023-02-15T02:57:29;99646.41;;;0.93;90.90
49611;BME280;35515;48.766;9.176;2023-02-15T02:59:57;99642.88;;;1.16;89.41
49611;BME280;35515;48.766;9.176;2023-02-15T03:02:25;99637.25;;;1.08;89.72
49611;BME280;35515;48.766;9.176;2023-02-15T03:04:55;99634.28;;;0.89;90.45
49611;BME280;35515;48.766;9.176;2023-02-15T03:07:30;99627.22;;;0.88;90.56
49611;BME280;35515;48.766;9.176;2023-02-15T03:09:58;99633.25;;;0.78;91.31
49611;BME280;35515;48.766;9.176;2023-02-15T03:12:26;99628.31;;;0.85;91.15
49611;BME280;35515;48.766;9.176;2023-02-15T03:14:55;99625.75;;;0.83;91.08
49611;BME280;35515;48.766;9.176;2023-02-15T03:17:23;99624.69;;;0.86;91.09
49611;BME280;35515;48.766;9.176;2023-02-15T03:19:52;99624.91;;;0.83;90.61
49611;BME280;35515;48.766;9.176;2023-02-15T03:22:20;99631.66;;;1.00;89.58
49611;BME280;35515;48.766;9.176;2023-02-15T03:24:51;99630.84;;;0.87;89.39
49611;BME280;35515;48.766;9.176;2023-02-15T03:27:20;99626.16;;;1.26;87.74
49611;BME280;35515;48.766;9.176;2023-02-15T03:29:50;99629.31;;;0.95;89.15
49611;BME280;35515;48.766;9.176;2023-02-15T03:32:19;99614.44;;;1.04;88.99
49611;BME280;35515;48.766;9.176;2023-02-15T03:34:46;99611.06;;;1.13;87.98
49611;BME280;35515;48.766;9.176;2023-02-15T03:37:13;99615.22;;;1.29;87.64
49611;BME280;35515;48.766;9.176;2023-02-15T03:39:42;99614.22;;;1.19;86.86
49611;BME280;35515;48.766;9.176;2023-02-15T03:42:13;99631.56;;;1.13;87.28
49611;BME280;35515;48.766;9.176;2023-02-15T03:44:45;99630.41;;;0.93;88.09
49611;BME280;35515;48.766;9.176;2023-02-15T03:47:15;99628.03;;;0.77;89.43
49611;BME280;35515;48.766;9.176;2023-02-15T03:49:42;99624.09;;;0.94;89.09
49611;BME280;35515;48.766;9.176;2023-02-15T03:52:10;99636.00;;;1.01;87.76
49611;BME280;35515;48.766;9.176;2023-02-15T03:54:38;99624.56;;;0.88;88.72
49611;BME280;35515;48.766;9.176;2023-02-15T03:57:09;99632.41;;;0.78;89.38
49611;BME280;35515;48.766;9.176;2023-02-15T03:59:55;99626.00;;;0.80;89.83
49611;BME280;35515;48.766;9.176;2023-02-15T04:02:54;99630.66;;;0.65;89.71
49611;BME280;35515;48.766;9.176;2023-02-15T04:05:25;99624.97;;;0.70;89.27
49611;BME280;35515;48.766;9.176;2023-02-15T04:07:51;99629.91;;;0.88;88.95
49611;BME280;35515;48.766;9.176;2023-02-15T04:10:17;99637.63;;;0.79;88.83
49611;BME280;35515;48.766;9.176;2023-02-15T04:13:01;99631.50;;;0.66;90.30
49611;BME280;35515;48.766;9.176;2023-02-15T04:15:29;99632.06;;;0.58;90.88
49611;BME280;35515;48.766;9.176;2023-02-15T04:18:13;99630.56;;;0.67;90.05
49611;BME280;35515;48.766;9.176;2023-02-15T04:20:42;99635.59;;;0.59;90.53
49611;BME280;35515;48.766;9.176;2023-02-15T04:23:26;99619.53;;;0.47;91.71
49611;BME280;35515;48.766;9.176;2023-02-15T04:26:10;99627.53;;;0.47;91.00
49611;BME280;35515;48.766;9.176;2023-02-15T04:28:36;99628.22;;;0.38;91.17
49611;BME280;35515;48.766;9.176;2023-02-15T04:31:04;99628.28;;;0.49;91.01
49611;BME280;35515;48.766;9.176;2023-02-15T04:33:30;99623.16;;;0.71;89.42
49611;BME280;35515;48.766;9.176;2023-02-15T04:35:57;99625.78;;;0.59;89.37
49611;BME280;35515;48.766;9.176;2023-02-15T04:38:23;99617.81;;;0.46;90.07
49611;BME280;35515;48.766;9.176;2023-02-15T04:40:50;99624.19;;;0.32;90.67
49611;BME280;35515;48.766;9.176;2023-02-15T04:43:17;99620.72;;;0.19;91.50
49611;BME280;35515;48.766;9.176;2023-02-15T04:45:46;99623.91;;;0.11;92.86
49611;BME280;35515;48.766;9.176;2023-02-15T04:48:15;99613.69;;;0.42;91.22
49611;BME280;35515;48.766;9.176;2023-02-15T04:50:41;99607.84;;;0.37;90.81
49611;BME280;35515;48.766;9.176;2023-02-15T04:53:08;99594.31;;;0.40;90.57
49611;BME280;35515;48.766;9.176;2023-02-15T04:55:34;99596.88;;;0.53;90.03
49611;BME280;35515;48.766;9.176;2023-02-15T04:58:00;99584.34;;;0.42;90.27
49611;BME280;35515;48.766;9.176;2023-02-15T05:00:27;99599.31;;;0.32;91.14
49611;BME280;35515;48.766;9.176;2023-02-15T05:02:53;99587.09;;;0.54;90.45
49611;BME280;35515;48.766;9.176;2023-02-15T05:05:21;99591.91;;;0.48;89.27
49611;BME280;35515;48.766;9.176;2023-02-15T05:07:47;99595.69;;;0.33;89.94
49611;BME280;35515;48.766;9.176;2023-02-15T05:10:14;99597.75;;;0.29;89.81
49611;BME280;35515;48.766;9.176;2023-02-15T05:12:40;99599.44;;;0.55;88.94
49611;BME280;35515;48.766;9.176;2023-02-15T05:15:07;99597.53;;;0.57;87.89
49611;BME280;35515;48.766;9.176;2023-02-15T05:17:33;99597.13;;;0.50;88.25
49611;BME280;35515;48.766;9.176;2023-02-15T05:19:59;99603.59;;;0.59;88.21
49611;BME280;35515;48.766;9.176;2023-02-15T05:22:27;99611.00;;;0.42;89.12
49611;BME280;35515;48.766;9.176;2023-02-15T05:24:54;99616.53;;;0.52;87.98
49611;BME280;35515;48.766;9.176;2023-02-15T05:27:38;99608.44;;;0.54;88.31
49611;BME280;35515;48.766;9.176;2023-02-15T05:30:22;99607.66;;;0.27;90.52
49611;BME280;35515;48.766;9.176;2023-02-15T05:32:48;99609.41;;;0.15;91.47
49611;BME280;35515;48.766;9.176;2023-02-15T05:35:15;99602.63;;;0.36;90.94
49611;BME280;35515;48.766;9.176;2023-02-15T05:37:43;99599.31;;;0.32;90.64
49611;BME280;35515;48.766;9.176;2023-02-15T05:40:10;99610.56;;;0.48;90.22
49611;BME280;35515;48.766;9.176;2023-02-15T05:42:36;99612.28;;;0.49;90.82
49611;BME280;35515;48.766;9.176;2023-02-15T05:45:03;99613.13;;;0.50;89.48
49611;BME280;35515;48.766;9.176;2023-02-15T05:47:30;99615.50;;;0.66;89.10
49611;BME280;35515;48.766;9.176;2023-02-15T05:49:56;99606.34;;;0.33;90.56
49611;BME280;35515;48.766;9.176;2023-02-15T05:52:23;99608.75;;;0.25;91.54
49611;BME280;35515;48.766;9.176;2023-02-15T05:54:51;99599.75;;;0.39;90.21
49611;BME280;35515;48.766;9.176;2023-02-15T05:57:17;99605.47;;;0.45;89.34
49611;BME280;35515;48.766;9.176;2023-02-15T05:59:43;99599.56;;;0.53;89.73
49611;BME280;35515;48.766;9.176;2023-02-15T06:02:09;99606.84;;;0.14;91.14
49611;BME280;35515;48.766;9.176;2023-02-15T06:04:36;99605.91;;;0.15;91.24
49611;BME280;35515;48.766;9.176;2023-02-15T06:07:03;99615.16;;;0.22;91.64
49611;BME280;35515;48.766;9.176;2023-02-15T06:09:29;99613.34;;;0.47;89.95
49611;BME280;35515;48.766;9.176;2023-02-15T06:11:57;99604.78;;;0.55;88.49
49611;BME280;35515;48.766;9.176;2023-02-15T06:14:23;99610.63;;;0.36;89.48
49611;BME280;35515;48.766;9.176;2023-02-15T06:16:50;99615.16;;;0.22;89.64
49611;BME280;35515;48.766;9.176;2023-02-15T06:19:16;99614.44;;;0.07;90.55
49611;BME280;35515;48.766;9.176;2023-02-15T06:21:42;99617.56;;;0.25;90.37
49611;BME280;35515;48.766;9.176;2023-02-15T06:24:09;99625.53;;;0.38;89.02
49611;BME280;35515;48.766;9.176;2023-02-15T06:26:35;99623.63;;;0.40;88.99
49611;BME280;35515;48.766;9.176;2023-02-15T06:29:03;99619.91;;;0.30;89.91
49611;BME280;35515;48.766;9.176;2023-02-15T06:31:29;99621.53;;;0.20;90.21
49611;BME280;35515;48.766;9.176;2023-02-15T06:33:56;99628.94;;;0.03;90.52
49611;BME280;35515;48.766;9.176;2023-02-15T06:36:26;99622.22;;;0.10;90.18
49611;BME280;35515;48.766;9.176;2023-02-15T06:38:52;99629.00;;;0.27;89.75
49611;BME280;35515;48.766;9.176;2023-02-15T06:41:18;99628.44;;;-0.02;90.88
49611;BME280;35515;48.766;9.176;2023-02-15T06:43:45;99637.47;;;0.08;90.66
49611;BME280;35515;48.766;9.176;2023-02-15T06:46:12;99641.88;;;-0.04;91.16
49611;BME280;35515;48.766;9.176;2023-02-15T06:48:39;99645.66;;;0.05;91.12
49611;BME280;35515;48.766;9.176;2023-02-15T06:51:05;99637.28;;;0.36;90.29
49611;BME280;35515;48.766;9.176;2023-02-15T06:53:31;99630.28;;;0.22;90.24
49611;BME280;35515;48.766;9.176;2023-02-15T06:56:00;99638.03;;;0.01;90.87
49611;BME280;35515;48.766;9.176;2023-02-15T06:58:27;99643.16;;;-0.09;91.93
49611;BME280;35515;48.766;9.176;2023-02-15T07:00:54;99637.38;;;-0.03;91.86
49611;BME280;35515;48.766;9.176;2023-02-15T07:03:21;99645.06;;;0.02;90.84
49611;BME280;35515;48.766;9.176;2023-02-15T07:05:48;99637.59;;;-0.06;91.35
49611;BME280;35515;48.766;9.176;2023-02-15T07:08:14;99641.97;;;-0.05;91.83
49611;BME280;35515;48.766;9.176;2023-02-15T07:10:43;99650.50;;;0.00;91.40
49611;BME280;35515;48.766;9.176;2023-02-15T07:13:09;99646.19;;;0.47;89.05
49611;BME280;35515;48.766;9.176;2023-02-15T07:15:35;99650.06;;;0.43;87.96
49611;BME280;35515;48.766;9.176;2023-02-15T07:18:01;99655.75;;;0.26;89.49
49611;BME280;35515;48.766;9.176;2023-02-15T07:20:29;99661.66;;;0.05;89.82
49611;BME280;35515;48.766;9.176;2023-02-15T07:22:55;99653.75;;;0.16;89.34
49611;BME280;35515;48.766;9.176;2023-02-15T07:25:21;99664.47;;;0.41;88.80
49611;BME280;35515;48.766;9.176;2023-02-15T07:27:48;99661.97;;;0.13;89.40
49611;BME280;35515;48.766;9.176;2023-02-15T07:30:16;99663.09;;;0.35;88.14
49611;BME280;35515;48.766;9.176;2023-02-15T07:32:42;99659.00;;;0.42;88.24
49611;BME280;35515;48.766;9.176;2023-02-15T07:35:22;99651.53;;;0.47;87.16
49611;BME280;35515;48.766;9.176;2023-02-15T07:37:50;99661.81;;;0.65;86.32
49611;BME280;35515;48.766;9.176;2023-02-15T07:40:18;99661.94;;;0.26;88.00
49611;BME280;35515;48.766;9.176;2023-02-15T07:42:44;99658.50;;;0.00;89.21
49611;BME280;35515;48.766;9.176;2023-02-15T07:45:10;99649.00;;;0.33;88.14
49611;BME280;35515;48.766;9.176;2023-02-15T07:47:37;99654.59;;;0.17;88.83
49611;BME280;35515;48.766;9.176;2023-02-15T07:50:04;99646.19;;;0.10;88.96
49611;BME280;35515;48.766;9.176;2023-02-15T07:52:30;99641.03;;;-0.17;91.47
49611;BME280;35515;48.766;9.176;2023-02-15T07:54:58;99636.81;;;0.18;89.67
49611;BME280;35515;48.766;9.176;2023-02-15T07:57:24;99634.50;;;0.37;88.82
49611;BME280;35515;48.766;9.176;2023-02-15T07:59:51;99630.00;;;0.13;89.71
49611;BME280;35515;48.766;9.176;2023-02-15T08:02:17;99631.91;;;0.11;89.69
49611;BME280;35515;48.766;9.176;2023-02-15T08:04:43;99637.75;;;0.54;88.15
49611;BME280;35515;48.766;9.176;2023-02-15T08:07:10;99640.28;;;0.31;88.35
49611;BME280;35515;48.766;9.176;2023-02-15T08:09:36;99649.13;;;-0.19;91.20
49611;BME280;35515;48.766;9.176;2023-02-15T08:12:04;99646.78;;;-0.10;91.32
49611;BME280;35515;48.766;9.176;2023-02-15T08:14:31;99650.22;;;-0.21;92.39
49611;BME280;35515;48.766;9.176;2023-02-15T08:16:58;99641.78;;;-0.28;93.37
49611;BME280;35515;48.766;9.176;2023-02-15T08:19:28;99654.00;;;-0.12;92.64
49611;BME280;35515;48.766;9.176;2023-02-15T08:21:55;99653.53;;;0.20;90.98
49611;BME280;35515;48.766;9.176;2023-02-15T08:24:23;99648.34;;;0.42;90.90
49611;BME280;35515;48.766;9.176;2023-02-15T08:26:50;99647.56;;;0.53;89.90
49611;BME280;35515;48.766;9.176;2023-02-15T08:29:19;99646.72;;;0.53;88.80
49611;BME280;35515;48.766;9.176;2023-02-15T08:31:46;99643.00;;;0.66;87.95
49611;BME280;35515;48.766;9.176;2023-02-15T08:34:13;99647.63;;;0.40;89.79
49611;BME280;35515;48.766;9.176;2023-02-15T08:36:40;99655.63;;;0.40;90.39
49611;BME280;35515;48.766;9.176;2023-02-15T08:39:07;99641.09;;;0.44;90.67
49611;BME280;35515;48.766;9.176;2023-02-15T08:41:34;99640.59;;;0.63;89.39
49611;BME280;35515;48.766;9.176;2023-02-15T08:44:01;99638.81;;;0.75;88.53
49611;BME280;35515;48.766;9.176;2023-02-15T08:46:30;99633.63;;;0.74;88.85
49611;BME280;35515;48.766;9.176;2023-02-15T08:48:57;99645.75;;;0.78;89.06
49611;BME280;35515;48.766;9.176;2023-02-15T08:51:24;99648.13;;;0.94;87.84
49611;BME280;35515;48.766;9.176;2023-02-15T08:53:51;99647.13;;;0.59;89.26
49611;BME280;35515;48.766;9.176;2023-02-15T08:56:18;99645.28;;;0.60;89.87
49611;BME280;35515;48.766;9.176;2023-02-15T08:58:45;99636.66;;;0.80;88.60
49611;BME280;35515;48.766;9.176;2023-02-15T09:01:12;99642.19;;;0.66;89.52
49611;BME280;35515;48.766;9.176;2023-02-15T09:03:40;99630.69;;;0.77;88.83
49611;BME280;35515;48.766;9.176;2023-02-15T09:06:07;99632.69;;;0.62;89.80
49611;BME280;35515;48.766;9.176;2023-02-15T09:08:33;99627.81;;;0.56;90.02
49611;BME280;35515;48.766;9.176;2023-02-15T09:11:06;99623.06;;;0.72;89.47
49611;BME280;35515;48.766;9.176;2023-02-15T09:13:33;99626.78;;;0.94;88.92
49611;BME280;35515;48.766;9.176;2023-02-15T09:16:00;99616.03;;;0.71;89.69
49611;BME280;35515;48.766;9.176;2023-02-15T09:18:26;99618.53;;;0.97;89.10
49611;BME280;35515;48.766;9.176;2023-02-15T09:20:55;99621.13;;;0.74;90.28
49611;BME280;35515;48.766;9.176;2023-02-15T09:23:21;99621.34;;;0.47;90.92
49611;BME280;35515;48.766;9.176;2023-02-15T09:25:47;99622.09;;;0.49;91.77
49611;BME280;35515;48.766;9.176;2023-02-15T09:28:14;99622.03;;;0.62;91.39
49611;BME280;35515;48.766;9.176;2023-02-15T09:30:40;99623.00;;;0.61;90.88
49611;BME280;35515;48.766;9.176;2023-02-15T09:33:06;99620.75;;;0.55;91.71
49611;BME280;35515;48.766;9.176;2023-02-15T09:35:33;99612.47;;;0.95;89.14
49611;BME280;35515;48.766;9.176;2023-02-15T09:38:00;99614.13;;;0.85;90.08
49611;BME280;35515;48.766;9.176;2023-02-15T09:40:27;99609.06;;;0.93;90.39
49611;BME280;35515;48.766;9.176;2023-02-15T09:43:01;99606.53;;;0.67;91.22
49611;BME280;35515;48.766;9.176;2023-02-15T09:45:42;99596.19;;;0.62;92.58
49611;BME280;35515;48.766;9.176;2023-02-15T09:48:17;99588.78;;;0.90;90.77
49611;BME280;35515;48.766;9.176;2023-02-15T09:50:50;99590.88;;;0.98;90.39
49611;BME280;35515;48.766;9.176;2023-02-15T09:53:24;99595.13;;;1.00;90.37
49611;BME280;35515;48.766;9.176;2023-02-15T09:55:57;99595.56;;;1.30;89.34
49611;BME280;35515;48.766;9.176;2023-02-15T09:58:28;99593.81;;;1.06;90.37
49611;BME280;35515;48.766;9.176;2023-02-15T10:00:59;99589.47;;;1.16;90.39
49611;BME280;35515;48.766;9.176;2023-02-15T10:03:39;99594.56;;;1.20;89.64
49611;BME280;35515;48.766;9.176;2023-02-15T10:06:15;99584.59;;;1.10;90.50
49611;BME280;35515;48.766;9.176;2023-02-15T10:08:55;99584.09;;;1.05;90.49
49611;BME280;35515;48.766;9.176;2023-02-15T10:11:26;99583.50;;;1.13;90.90
49611;BME280;35515;48.766;9.176;2023-02-15T10:14:12;99578.94;;;1.26;90.55
49611;BME280;35515;48.766;9.176;2023-02-15T10:16:43;99584.13;;;1.16;90.75
49611;BME280;35515;48.766;9.176;2023-02-15T10:19:12;99581.25;;;1.31;90.36
49611;BME280;35515;48.766;9.176;2023-02-15T10:21:48;99577.63;;;1.32;90.26
49611;BME280;35515;48.766;9.176;2023-02-15T10:24:30;99585.38;;;1.46;89.53
49611;BME280;35515;48.766;9.176;2023-02-15T10:27:02;99580.53;;;1.40;89.68
49611;BME280;35515;48.766;9.176;2023-02-15T10:29:33;99579.09;;;1.36;89.98
49611;BME280;35515;48.766;9.176;2023-02-15T10:32:04;99574.47;;;1.49;90.06
49611;BME280;35515;48.766;9.176;2023-02-15T10:34:37;99576.88;;;1.64;89.58
49611;BME280;35515;48.766;9.176;2023-02-15T10:37:14;99571.53;;;1.64;89.39
49611;BME280;35515;48.766;9.176;2023-02-15T10:39:51;99563.53;;;1.75;89.15
49611;BME280;35515;48.766;9.176;2023-02-15T10:42:20;99558.56;;;1.82;88.53
49611;BME280;35515;48.766;9.176;2023-02-15T10:44:56;99558.66;;;1.92;88.75
49611;BME280;35515;48.766;9.176;2023-02-15T10:47:33;99556.25;;;2.00;87.88
49611;BME280;35515;48.766;9.176;2023-02-15T10:50:13;99551.38;;;1.94;88.09
49611;BME280;35515;48.766;9.176;2023-02-15T10:52:48;99546.47;;;2.10;87.74
49611;BME280;35515;48.766;9.176;2023-02-15T10:55:23;99539.13;;;2.35;86.33
49611;BME280;35515;48.766;9.176;2023-02-15T10:57:53;99541.06;;;2.33;86.04
49611;BME280;35515;48.766;9.176;2023-02-15T11:00:25;99536.28;;;2.48;86.14
49611;BME280;35515;48.766;9.176;2023-02-15T11:03:02;99540.47;;;2.62;84.98
49611;BME280;35515;48.766;9.176;2023-02-15T11:05:35;99533.69;;;2.58;85.26
49611;BME280;35515;48.766;9.176;2023-02-15T11:08:04;99528.84;;;2.51;85.56
49611;BME280;35515;48.766;9.176;2023-02-15T11:10:33;99523.28;;;2.43;86.10
49611;BME280;35515;48.766;9.176;2023-02-15T11:13:02;99523.44;;;2.63;85.37
49611;BME280;35515;48.766;9.176;2023-02-15T11:15:30;99518.56;;;2.68;85.53
49611;BME280;35515;48.766;9.176;2023-02-15T11:18:00;99513.88;;;2.81;84.41
49611;BME280;35515;48.766;9.176;2023-02-15T11:20:29;99523.78;;;2.91;84.07
49611;BME280;35515;48.766;9.176;2023-02-15T11:22:57;99517.25;;;2.83;84.41
49611;BME280;35515;48.766;9.176;2023-02-15T11:25:25;99515.94;;;2.99;84.00
49611;BME280;35515;48.766;9.176;2023-02-15T11:27:53;99513.72;;;3.25;82.75
49611;BME280;35515;48.766;9.176;2023-02-15T11:30:22;99516.63;;;3.22;82.69
49611;BME280;35515;48.766;9.176;2023-02-15T11:32:49;99514.94;;;3.21;83.24
49611;BME280;35515;48.766;9.176;2023-02-15T11:35:18;99515.31;;;3.38;83.49
49611;BME280;35515;48.766;9.176;2023-02-15T11:37:47;99511.25;;;3.53;85.41
49611;BME280;35515;48.766;9.176;2023-02-15T11:40:17;99501.72;;;3.60;82.31
49611;BME280;35515;48.766;9.176;2023-02-15T11:42:45;99506.22;;;3.60;82.26
49611;BME280;35515;48.766;9.176;2023-02-15T11:45:19;99500.47;;;3.74;81.71
49611;BME280;35515;48.766;9.176;2023-02-15T11:47:46;99508.06;;;3.69;81.91
49611;BME280;35515;48.766;9.176;2023-02-15T11:50:14;99506.97;;;3.72;81.31
49611;BME280;35515;48.766;9.176;2023-02-15T11:52:41;99507.59;;;3.95;81.04
49611;BME280;35515;48.766;9.176;2023-02-15T11:55:10;99507.03;;;3.91;80.82
49611;BME280;35515;48.766;9.176;2023-02-15T11:57:38;99512.41;;;4.01;80.22
49611;BME280;35515;48.766;9.176;2023-02-15T12:00:10;99503.22;;;4.04;80.35
49611;BME280;35515;48.766;9.176;2023-02-15T12:02:41;99508.88;;;4.10;80.30
49611;BME280;35515;48.766;9.176;2023-02-15T12:05:11;99498.72;;;4.24;79.57
49611;BME280;35515;48.766;9.176;2023-02-15T12:07:40;99495.66;;;4.38;79.12
49611;BME280;35515;48.766;9.176;2023-02-15T12:10:13;99506.53;;;4.37;79.34
49611;BME280;35515;48.766;9.176;2023-02-15T12:12:42;99499.31;;;4.47;78.69
49611;BME280;35515;48.766;9.176;2023-02-15T12:15:09;99492.41;;;4.44;78.66
49611;BME280;35515;48.766;9.176;2023-02-15T12:17:38;99489.03;;;4.52;78.34
49611;BME280;35515;48.766;9.176;2023-02-15T12:20:07;99479.41;;;4.59;78.05
49611;BME280;35515;48.766;9.176;2023-02-15T12:22:48;99475.13;;;4.66;77.98
49611;BME280;35515;48.766;9.176;2023-02-15T12:25:20;99475.72;;;4.80;77.52
49611;BME280;35515;48.766;9.176;2023-02-15T12:27:47;99477.38;;;4.81;77.52
49611;BME280;35515;48.766;9.176;2023-02-15T12:30:15;99474.81;;;4.99;76.88
49611;BME280;35515;48.766;9.176;2023-02-15T12:32:47;99469.75;;;4.96;77.23
49611;BME280;35515;48.766;9.176;2023-02-15T12:35:19;99471.72;;;4.94;77.22
49611;BME280;35515;48.766;9.176;2023-02-15T12:37:52;99463.22;;;4.98;77.09
49611;BME280;35515;48.766;9.176;2023-02-15T12:40:21;99471.84;;;5.02;77.50
49611;BME280;35515;48.766;9.176;2023-02-15T12:42:47;99467.19;;;5.04;77.44
49611;BME280;35515;48.766;9.176;2023-02-15T12:45:21;99464.50;;;5.04;77.73
49611;BME280;35515;48.766;9.176;2023-02-15T12:47:49;99463.19;;;5.08;77.62
49611;BME280;35515;48.766;9.176;2023-02-15T12:50:35;99453.28;;;5.18;77.38
49611;BME280;35515;48.766;9.176;2023-02-15T12:53:05;99445.16;;;5.28;76.91
49611;BME280;35515;48.766;9.176;2023-02-15T12:55:32;99450.25;;;5.31;77.29
49611;BME280;35515;48.766;9.176;2023-02-15T12:58:05;99443.03;;;5.32;77.29
49611;BME280;35515;48.766;9.176;2023-02-15T13:00:32;99442.53;;;5.46;76.82
49611;BME280;35515;48.766;9.176;2023-02-15T13:02:59;99432.34;;;5.50;76.98
49611;BME280;35515;48.766;9.176;2023-02-15T13:05:29;99432.97;;;5.62;76.24
49611;BME280;35515;48.766;9.176;2023-02-15T13:07:58;99440.34;;;5.60;76.52
49611;BME280;35515;48.766;9.176;2023-02-15T13:10:27;99416.25;;;5.68;75.73
49611;BME280;35515;48.766;9.176;2023-02-15T13:12:54;99420.25;;;5.82;75.58
49611;BME280;35515;48.766;9.176;2023-02-15T13:15:34;99416.72;;;5.81;76.11
49611;BME280;35515;48.766;9.176;2023-02-15T13:18:01;99406.44;;;5.95;75.45
49611;BME280;35515;48.766;9.176;2023-02-15T13:20:28;99406.72;;;5.92;75.30
49611;BME280;35515;48.766;9.176;2023-02-15T13:22:58;99398.16;;;6.06;74.70